createdAt,value
2022-12-06T00:05:01.363Z,6.31
2022-12-06T00:10:02.781Z,6.39
2022-12-06T00:15:04.382Z,6.41
2022-12-06T00:20:06.565Z,6.29
2022-12-06T00:25:08.108Z,6.19
2022-12-06T00:30:09.853Z,6.20
2022-12-06T00:35:11.178Z,6.26
2022-12-06T00:40:12.650Z,6.27
2022-12-06T00:45:14.001Z,6.11
2022-12-06T00:50:15.374Z,6.28
2022-12-06T00:55:16.727Z,6.37
2022-12-06T01:00:18.412Z,6.36
2022-12-06T01:05:19.730Z,6.40
2022-12-06T01:10:21.209Z,6.10
2022-12-06T01:15:22.518Z,6.10
2022-12-06T01:20:24.195Z,5.94
2022-12-06T01:25:26.399Z,5.78
2022-12-06T01:30:29.173Z,5.95
2022-12-06T01:35:30.504Z,5.89
2022-12-06T01:40:38.343Z,5.90
2022-12-06T01:45:39.717Z,5.83
2022-12-06T01:50:42.787Z,5.76
2022-12-06T01:55:44.200Z,5.78
2022-12-06T02:00:45.743Z,5.91
2022-12-06T02:05:48.483Z,5.65
2022-12-06T02:10:49.994Z,5.74
2022-12-06T02:16:05.711Z,5.70
2022-12-06T02:21:17.041Z,5.76
2022-12-06T02:26:26.774Z,5.71
2022-12-06T02:31:39.964Z,5.55
2022-12-06T02:37:09.108Z,5.71
2022-12-06T02:42:17.483Z,5.62
2022-12-06T02:47:22.975Z,5.68
2022-12-06T02:52:27.470Z,5.57
2022-12-06T02:57:41.474Z,5.61
2022-12-06T03:02:42.952Z,5.48
2022-12-06T03:07:46.229Z,5.52
2022-12-06T03:13:08.629Z,5.54
2022-12-06T03:18:23.703Z,5.51
2022-12-06T03:23:34.903Z,5.52
2022-12-06T03:28:38.770Z,5.28
2022-12-06T03:33:45.069Z,5.28
2022-12-06T03:38:52.915Z,5.31
2022-12-06T03:43:54.854Z,5.57
2022-12-06T03:49:10.046Z,5.59
2022-12-06T03:54:11.892Z,5.20
2022-12-06T03:59:13.195Z,5.41
2022-12-06T04:04:14.767Z,5.51
2022-12-06T04:09:35.031Z,5.55
2022-12-06T04:14:39.137Z,5.38
2022-12-06T04:19:40.443Z,5.35
2022-12-06T04:24:41.761Z,5.36
2022-12-06T04:30:02.179Z,5.31
2022-12-06T04:35:22.387Z,5.35
2022-12-06T04:40:23.661Z,5.31
2022-12-06T04:45:25.005Z,5.47
2022-12-06T04:50:26.373Z,5.43
2022-12-06T04:55:27.748Z,5.29
2022-12-06T05:00:29.413Z,5.20
2022-12-06T05:05:30.787Z,5.24
2022-12-06T05:10:32.972Z,5.32
2022-12-06T05:15:34.296Z,5.37
2022-12-06T05:20:36.930Z,5.34
2022-12-06T05:25:38.249Z,5.39
2022-12-06T05:30:40.466Z,5.44
2022-12-06T05:35:41.795Z,5.41
2022-12-06T05:40:44.339Z,5.49
2022-12-06T05:45:45.707Z,5.56
2022-12-06T05:50:48.431Z,5.53
2022-12-06T05:55:50.193Z,5.55
2022-12-06T06:00:51.563Z,5.55
2022-12-06T06:05:57.296Z,5.64
2022-12-06T06:10:59.465Z,5.59
2022-12-06T06:16:01.151Z,5.60
2022-12-06T06:21:03.962Z,5.72
2022-12-06T06:26:09.586Z,5.68
2022-12-06T06:31:11.017Z,5.75
2022-12-06T06:36:12.399Z,5.70
2022-12-06T06:41:13.746Z,5.68
2022-12-06T06:46:15.189Z,5.63
2022-12-06T06:51:16.515Z,5.64
2022-12-06T06:56:20.162Z,5.64
2022-12-06T07:01:24.002Z,5.49
2022-12-06T07:06:25.689Z,5.54
2022-12-06T07:11:27.029Z,5.60
2022-12-06T07:16:28.533Z,5.53
2022-12-06T07:21:30.122Z,5.62
2022-12-06T07:26:31.436Z,5.68
2022-12-06T07:31:33.774Z,5.60
2022-12-06T07:36:35.267Z,5.69
2022-12-06T07:41:55.514Z,5.71
2022-12-06T07:46:57.367Z,5.59
2022-12-06T07:51:59.095Z,5.68
2022-12-06T07:57:00.409Z,5.72
2022-12-06T08:02:01.808Z,5.59
2022-12-06T08:07:03.256Z,5.69
2022-12-06T08:12:04.899Z,5.59
2022-12-06T08:17:06.604Z,5.70
2022-12-06T08:22:08.191Z,5.67
2022-12-06T08:27:09.533Z,5.70
2022-12-06T08:32:11.048Z,5.78
2022-12-06T08:37:12.420Z,5.89
2022-12-06T08:42:13.730Z,5.75
2022-12-06T08:47:15.132Z,5.85
2022-12-06T08:52:17.239Z,6.00
2022-12-06T08:57:18.534Z,6.02
2022-12-06T09:02:19.924Z,6.09
2022-12-06T09:07:22.998Z,5.99
2022-12-06T09:12:25.247Z,5.93
2022-12-06T09:17:26.617Z,6.02
2022-12-06T09:22:28.058Z,5.98
2022-12-06T09:27:30.288Z,5.72
2022-12-06T09:32:31.599Z,5.96
2022-12-06T09:37:33.665Z,6.03
2022-12-06T09:43:03.241Z,6.07
2022-12-06T09:48:26.724Z,6.01
2022-12-06T09:53:35.891Z,6.11
2022-12-06T09:59:07.627Z,6.14
2022-12-06T10:04:46.379Z,6.06
2022-12-06T10:10:18.275Z,6.28
2022-12-06T10:15:44.262Z,6.40
2022-12-06T10:20:54.130Z,6.40
2022-12-06T10:26:17.506Z,6.72
2022-12-06T10:31:34.562Z,6.82
2022-12-06T10:36:44.572Z,6.96
2022-12-06T10:42:06.687Z,7.03
2022-12-06T10:47:14.277Z,7.32
2022-12-06T10:52:43.676Z,7.22
2022-12-06T10:58:17.634Z,7.54
2022-12-06T11:03:37.782Z,7.53
2022-12-06T11:09:00.582Z,7.61
2022-12-06T11:14:25.265Z,7.63
2022-12-06T11:19:38.459Z,7.70
2022-12-06T11:24:50.618Z,7.58
2022-12-06T11:29:53.342Z,7.66
2022-12-06T11:35:01.137Z,7.23
2022-12-06T11:40:27.172Z,7.28
2022-12-06T11:45:42.624Z,7.24
2022-12-06T11:50:46.463Z,7.43
2022-12-06T11:55:53.429Z,7.61
2022-12-06T12:01:08.244Z,7.47
2022-12-06T12:06:26.261Z,7.44
2022-12-06T12:11:31.945Z,7.47
2022-12-06T12:16:37.144Z,7.40
2022-12-06T12:21:42.350Z,7.37
2022-12-06T12:26:43.800Z,7.41
2022-12-06T12:31:53.294Z,7.41
2022-12-06T12:37:00.871Z,7.44
2022-12-06T12:42:03.024Z,7.39
2022-12-06T12:47:19.856Z,7.58
2022-12-06T12:52:30.271Z,7.48
2022-12-06T12:57:31.786Z,7.43
2022-12-06T13:02:35.424Z,7.43
2022-12-06T13:07:41.599Z,7.36
2022-12-06T13:12:48.407Z,7.40
2022-12-06T13:17:59.809Z,7.40
2022-12-06T13:23:14.005Z,7.29
2022-12-06T13:28:28.192Z,7.28
2022-12-06T13:33:33.208Z,7.08
2022-12-06T13:38:39.248Z,7.15
2022-12-06T13:43:40.474Z,7.11
2022-12-06T13:48:53.330Z,7.16
2022-12-06T13:54:03.917Z,7.15
2022-12-06T13:59:25.220Z,7.16
2022-12-06T14:09:43.135Z,7.19
2022-12-06T14:14:55.196Z,6.86
2022-12-06T14:19:56.576Z,7.14
2022-12-06T14:25:01.394Z,7.02
2022-12-06T14:30:03.555Z,7.08
2022-12-06T14:35:13.968Z,6.78
2022-12-06T14:40:45.310Z,7.07
2022-12-06T14:45:47.219Z,7.11
2022-12-06T14:50:53.083Z,7.08
2022-12-06T14:55:56.237Z,7.07
2022-12-06T15:01:02.288Z,7.05
2022-12-06T15:06:20.524Z,6.90
2022-12-06T15:11:40.397Z,6.83
2022-12-06T15:16:45.090Z,6.93
2022-12-06T15:21:50.642Z,6.84
2022-12-06T15:26:53.194Z,7.00
2022-12-06T15:31:55.755Z,6.92
2022-12-06T15:42:23.285Z,6.93
2022-12-06T15:47:24.800Z,7.06
2022-12-06T15:52:27.450Z,7.08
2022-12-06T15:57:28.734Z,7.12
2022-12-06T16:02:30.086Z,7.04
2022-12-06T16:07:31.505Z,6.99
2022-12-06T16:12:52.892Z,6.97
2022-12-06T16:17:54.320Z,6.91
2022-12-06T16:23:18.575Z,6.87
2022-12-06T16:28:19.921Z,6.79
2022-12-06T16:33:23.947Z,6.73
2022-12-06T16:38:25.547Z,6.60
2022-12-06T16:43:27.299Z,6.82
2022-12-06T16:48:28.695Z,6.79
2022-12-06T16:53:30.039Z,6.89
2022-12-06T16:58:31.332Z,6.89
2022-12-06T17:03:32.606Z,6.84
2022-12-06T17:08:34.011Z,6.79
2022-12-06T17:13:35.414Z,6.69
2022-12-06T17:18:36.820Z,6.62
2022-12-06T17:23:38.249Z,6.67
2022-12-06T17:28:39.742Z,6.55
2022-12-06T17:33:41.076Z,6.58
2022-12-06T17:38:42.369Z,6.64
2022-12-06T17:43:43.651Z,6.73
2022-12-06T17:48:45.154Z,6.77
2022-12-06T17:53:46.569Z,6.64
2022-12-06T17:58:47.894Z,6.90
2022-12-06T18:03:53.875Z,6.96
2022-12-06T18:08:56.771Z,6.84
2022-12-06T18:13:58.118Z,6.73
2022-12-06T18:19:07.190Z,6.49
2022-12-06T18:24:21.602Z,6.75
2022-12-06T18:29:24.513Z,6.79
2022-12-06T18:34:25.894Z,6.85
2022-12-06T18:39:27.856Z,6.80
2022-12-06T18:44:29.338Z,6.80
2022-12-06T18:49:30.743Z,6.84
2022-12-06T18:54:32.116Z,6.84
2022-12-06T18:59:37.467Z,6.85
2022-12-06T19:04:38.820Z,6.69
2022-12-06T19:09:40.089Z,6.76
2022-12-06T19:14:42.316Z,6.53
2022-12-06T19:19:46.051Z,6.85
2022-12-06T19:24:47.423Z,6.71
2022-12-06T19:29:49.058Z,6.72
2022-12-06T19:34:50.786Z,6.41
2022-12-06T19:39:52.123Z,6.38
2022-12-06T19:44:53.446Z,6.24
2022-12-06T19:49:55.436Z,6.50
2022-12-06T19:54:56.848Z,6.45
2022-12-06T19:59:58.654Z,6.61
2022-12-06T20:05:00.273Z,6.47
2022-12-06T20:10:01.925Z,6.58
2022-12-06T20:15:03.962Z,6.21
2022-12-06T20:20:06.177Z,5.87
2022-12-06T20:25:07.883Z,5.83
2022-12-06T20:30:09.921Z,6.03
2022-12-06T20:35:11.353Z,5.79
2022-12-06T20:40:13.183Z,5.94
2022-12-06T20:45:14.527Z,5.92
2022-12-06T20:50:16.219Z,6.08
2022-12-06T20:55:17.803Z,5.69
2022-12-06T21:00:19.919Z,5.83
2022-12-06T21:05:21.256Z,5.78
2022-12-06T21:10:22.767Z,5.85
2022-12-06T21:15:24.188Z,5.62
2022-12-06T21:20:25.472Z,5.66
2022-12-06T21:25:27.084Z,5.61
2022-12-06T21:30:28.540Z,5.78
2022-12-06T21:35:29.953Z,5.84
2022-12-06T21:40:32.539Z,6.00
2022-12-06T21:45:35.177Z,5.81
2022-12-06T21:50:36.930Z,6.16
2022-12-06T21:55:38.799Z,6.12
2022-12-06T22:00:40.172Z,5.95
2022-12-06T22:05:41.934Z,6.05
2022-12-06T22:10:43.278Z,6.03
2022-12-06T22:15:44.621Z,6.11
2022-12-06T22:20:56.469Z,6.05
2022-12-06T22:25:59.265Z,6.06
2022-12-06T22:31:11.998Z,5.94
2022-12-06T22:36:14.365Z,6.02
2022-12-06T22:41:16.012Z,5.90
2022-12-06T22:46:17.717Z,5.97
2022-12-06T22:51:21.670Z,6.14
2022-12-06T22:56:24.025Z,6.11
2022-12-06T23:01:27.992Z,6.07
2022-12-06T23:06:29.985Z,6.16
2022-12-06T23:11:33.609Z,5.92
2022-12-06T23:16:35.705Z,6.03
2022-12-06T23:21:38.489Z,6.03
2022-12-06T23:26:46.625Z,5.98
2022-12-06T23:31:48.917Z,5.89
2022-12-06T23:36:50.302Z,5.96
2022-12-06T23:41:51.698Z,5.98
2022-12-06T23:46:53.211Z,6.07
2022-12-06T23:51:54.672Z,6.01
2022-12-06T23:56:55.990Z,5.98
